Ware, MA (01082)

5:39 PM EDT on September 04, 2015 (GMT -0400)
UMass Cold Spring Orchard | | Change Station
CLOSE
Current Station
Personal Weather Station
Location: Belchertown, MA
Elevation: 630 ft
Nearby Weather Stations

Elev 630 ft 42.25 °N, 72.36 °W | Updated 5 seconds ago

Clear
Clear
79.4 °F
Feels Like 81 °F
N
3.0
Wind Variable Wind from NW
Gusts 6.0 mph

Today
High -- | Low -- °F
--% Chance of Precip.
Yesterday
High -- | Low -- °F
Precip. -- in
6:17 AM 7:18 PM
Waning Gibbous, 56% visible
Pressure 30.16 in
Visibility 10.0 miles
Clouds Clear
Heat Index 81 °F
Dew Point 64 °F
Humidity 60%
Rainfall 0.00 in
Snow Depth Not available.
UV 2 out of 12
Pollen 8.70 out of 12
Air Quality Not available.
Flu Activity Not available.
METAR KCEF 042058Z AUTO VRB04KT 10SM CLR 26/14 A3014 RMK AO2 SLP211 T02590144 56004
Pressure 30.16 in
Visibility 10.0 miles
Clouds Clear
Heat Index 81 °F
Dew Point 64 °F
Humidity 60%
Rainfall 0.00 in
Snow Depth Not available.
UV 2 out of 12
Pollen 8.70 out of 12
Air Quality Not available.
Flu Activity Not available.
METAR KCEF 042058Z AUTO VRB04KT 10SM CLR 26/14 A3014 RMK AO2 SLP211 T02590144 56004

10-Day Weather Forecast

×

Almanac

Astronomy

Sep. 04, 2015 Rise Set
Actual Time
Civil Twilight
Nautical Twilight
Astronomical Twilight
Moon
Length of Visible Light
Length of Day
Tomorrow will be .
, % of the Moon is Illuminated

Today's Extremes

State Highs State Lows

Community

WunderPhotos

Upload Photos

1,852,297 photos uploaded!

WunderBlogs® & News

Nearby

Air Quality

  Air Quality AQ Index Pollutant
Not available.

Snow Depth

Station Depth Elevation

Earthquake Activity

City Distance Mag. Time & Date
Minimum magnitude displayed is 2.5.

Coastal Water Temperatures

Place Temperature

Stations

Nearby Weather Stations

Station Location Temp. Windchill Dew Point Humidity Wind Precip. Elev Updated Type